createdAt,value
2019-02-20T00:00:11.503Z,4.76
2019-02-20T00:02:44.954Z,4.74
2019-02-20T00:05:17.151Z,4.75
2019-02-20T00:07:48.986Z,4.69
2019-02-20T00:10:20.917Z,4.55
2019-02-20T00:12:52.862Z,4.52
2019-02-20T00:15:24.738Z,4.49
2019-02-20T00:18:05.453Z,4.49
2019-02-20T00:20:37.222Z,4.41
2019-02-20T00:23:11.061Z,4.27
2019-02-20T00:25:43.827Z,4.25
2019-02-20T00:28:17.574Z,4.29
2019-02-20T00:30:49.467Z,4.32
2019-02-20T00:33:21.390Z,4.35
2019-02-20T00:35:53.353Z,4.23
2019-02-20T00:38:25.168Z,4.20
2019-02-20T00:40:57.370Z,4.13
2019-02-20T00:43:29.196Z,4.09
2019-02-20T00:46:18.203Z,3.92
2019-02-20T00:48:55.247Z,3.88
2019-02-20T00:51:55.287Z,3.88
2019-02-20T00:54:27.208Z,3.80
2019-02-20T00:56:59.072Z,3.80
2019-02-20T00:59:34.126Z,3.77
2019-02-20T01:02:05.989Z,3.88
2019-02-20T01:04:37.795Z,3.90
2019-02-20T01:07:09.680Z,3.96
2019-02-20T01:09:42.505Z,4.07
2019-02-20T01:12:15.868Z,4.13
2019-02-20T01:14:49.922Z,4.15
2019-02-20T01:17:24.257Z,4.11
2019-02-20T01:19:57.643Z,4.11
2019-02-20T01:22:29.502Z,4.07
2019-02-20T01:25:01.333Z,4.04
2019-02-20T01:27:33.176Z,4.00
2019-02-20T01:30:05.358Z,3.96
2019-02-20T01:32:37.313Z,3.84
2019-02-20T01:35:09.454Z,3.82
2019-02-20T01:37:41.301Z,3.74
2019-02-20T01:40:13.100Z,3.67
2019-02-20T01:42:44.939Z,3.59
2019-02-20T01:45:17.951Z,3.58
2019-02-20T01:47:49.877Z,3.49
2019-02-20T01:50:21.657Z,3.37
2019-02-20T01:52:53.518Z,3.35
2019-02-20T01:55:25.700Z,3.37
2019-02-20T01:57:57.552Z,3.41
2019-02-20T02:00:29.397Z,3.35
2019-02-20T02:03:01.253Z,3.33
2019-02-20T02:05:41.309Z,3.32
2019-02-20T02:08:22.710Z,3.33
2019-02-20T02:10:54.551Z,3.39
2019-02-20T02:16:39.052Z,3.49
2019-02-20T02:19:12.497Z,3.51
2019-02-20T02:21:44.369Z,3.42
2019-02-20T02:24:48.503Z,3.35
2019-02-20T02:27:20.798Z,3.40
2019-02-20T02:29:52.676Z,3.40
2019-02-20T02:32:28.007Z,3.40
2019-02-20T02:35:03.227Z,3.44
2019-02-20T02:37:36.119Z,3.53
2019-02-20T02:40:08.149Z,3.50
2019-02-20T02:42:40.029Z,3.51
2019-02-20T02:45:12.001Z,3.46
2019-02-20T02:47:43.900Z,3.37
2019-02-20T02:50:15.743Z,3.24
2019-02-20T02:52:53.020Z,3.16
2019-02-20T02:55:24.952Z,3.06
2019-02-20T02:58:11.754Z,3.02
2019-02-20T03:00:43.614Z,3.00
2019-02-20T03:03:15.548Z,2.94
2019-02-20T03:05:47.708Z,2.98
2019-02-20T03:08:19.567Z,2.99
2019-02-20T03:10:51.405Z,3.01
2019-02-20T03:13:23.234Z,2.92
2019-02-20T03:15:58.188Z,2.89
2019-02-20T03:18:30.036Z,2.97
2019-02-20T03:21:01.904Z,2.99
2019-02-20T03:23:39.944Z,3.06
2019-02-20T03:26:07.266Z,2.96
2019-02-20T03:28:40.225Z,3.01
2019-02-20T03:31:12.165Z,3.07
2019-02-20T03:33:45.033Z,3.07
2019-02-20T03:36:17.071Z,3.03
2019-02-20T03:38:49.284Z,3.03
2019-02-20T03:41:21.218Z,2.96
2019-02-20T03:43:53.247Z,2.78
2019-02-20T03:46:26.095Z,2.70
2019-02-20T03:48:58.014Z,2.56
2019-02-20T03:51:30.870Z,2.54
2019-02-20T03:54:02.820Z,2.55
2019-02-20T03:56:34.654Z,2.63
2019-02-20T03:59:09.547Z,2.64
2019-02-20T04:01:41.396Z,2.70
2019-02-20T04:04:14.326Z,2.72
2019-02-20T04:06:46.192Z,2.63
2019-02-20T04:09:18.014Z,2.53
2019-02-20T04:11:49.883Z,2.43
2019-02-20T04:14:24.116Z,2.40
2019-02-20T04:16:55.937Z,2.27
2019-02-20T04:19:27.851Z,2.17
2019-02-20T04:21:59.823Z,2.24
2019-02-20T04:24:31.717Z,2.29
2019-02-20T04:27:03.503Z,2.39
2019-02-20T04:29:35.395Z,2.42
2019-02-20T04:32:07.203Z,2.40
2019-02-20T04:34:39.218Z,2.34
2019-02-20T04:37:10.995Z,2.28
2019-02-20T04:39:42.837Z,2.17
2019-02-20T04:42:15.894Z,2.09
2019-02-20T04:44:47.754Z,2.04
2019-02-20T04:47:19.558Z,2.19
2019-02-20T04:49:51.399Z,2.18
2019-02-20T04:52:23.563Z,2.21
2019-02-20T04:54:56.195Z,2.22
2019-02-20T04:57:28.065Z,2.16
2019-02-20T05:00:00.566Z,2.23
2019-02-20T05:02:32.592Z,2.29
2019-02-20T05:05:06.693Z,2.33
2019-02-20T05:07:41.488Z,2.30
2019-02-20T05:10:13.306Z,2.27
2019-02-20T05:12:45.216Z,2.28
2019-02-20T05:15:17.056Z,2.32
2019-02-20T05:17:49.183Z,2.38
2019-02-20T05:20:21.181Z,2.40
2019-02-20T05:22:53.001Z,2.40
2019-02-20T05:25:24.927Z,2.37
2019-02-20T05:27:56.920Z,2.36
2019-02-20T05:30:30.699Z,2.43
2019-02-20T05:33:02.534Z,2.44
2019-02-20T05:35:34.317Z,2.38
2019-02-20T05:38:06.144Z,2.55
2019-02-20T05:40:39.473Z,2.62
2019-02-20T05:43:11.305Z,2.75
2019-02-20T05:45:43.078Z,2.73
2019-02-20T05:48:15.354Z,2.80
2019-02-20T05:50:47.134Z,2.72
2019-02-20T05:53:19.066Z,2.74
2019-02-20T05:55:52.107Z,2.87
2019-02-20T05:58:24.055Z,2.93
2019-02-20T06:00:55.953Z,3.01
2019-02-20T06:03:27.780Z,3.04
2019-02-20T06:05:59.579Z,3.08
2019-02-20T06:08:31.607Z,3.11
2019-02-20T06:11:12.193Z,3.11
2019-02-20T06:13:37.407Z,3.07
2019-02-20T06:16:09.299Z,3.09
2019-02-20T06:18:42.016Z,3.15
2019-02-20T06:21:17.789Z,3.15
2019-02-20T06:23:49.624Z,3.20
2019-02-20T06:26:21.453Z,3.15
2019-02-20T06:28:53.793Z,3.23
2019-02-20T06:31:25.586Z,3.25
2019-02-20T06:33:57.428Z,3.16
2019-02-20T06:36:29.311Z,3.06
2019-02-20T06:39:05.006Z,2.98
2019-02-20T06:41:39.455Z,2.92
2019-02-20T06:44:11.953Z,2.92
2019-02-20T06:46:43.842Z,2.78
2019-02-20T06:49:16.730Z,2.71
2019-02-20T06:51:48.945Z,2.64
2019-02-20T06:54:20.835Z,2.62
2019-02-20T06:56:52.689Z,2.58
2019-02-20T06:59:24.508Z,2.59
2019-02-20T07:02:00.902Z,2.56
2019-02-20T07:04:32.735Z,2.58
2019-02-20T07:07:25.021Z,2.77
2019-02-20T07:10:32.916Z,2.88
2019-02-20T07:13:58.612Z,2.97
2019-02-20T07:17:20.615Z,2.93
2019-02-20T07:20:35.819Z,3.05
2019-02-20T07:23:24.714Z,3.15
2019-02-20T07:26:40.307Z,3.14
2019-02-20T07:29:52.311Z,3.14
2019-02-20T07:32:25.839Z,3.19
2019-02-20T07:35:00.397Z,3.25
2019-02-20T07:37:32.351Z,3.28
2019-02-20T07:40:04.885Z,3.33
2019-02-20T07:42:36.877Z,3.34
2019-02-20T07:45:14.496Z,3.47
2019-02-20T07:47:46.342Z,3.73
2019-02-20T07:50:22.986Z,3.92
2019-02-20T07:52:57.862Z,4.16
2019-02-20T07:55:29.778Z,4.35
2019-02-20T07:58:01.704Z,4.44
2019-02-20T08:00:33.805Z,4.66
2019-02-20T08:03:07.262Z,4.88
2019-02-20T08:05:39.087Z,4.99
2019-02-20T08:08:10.968Z,5.06
2019-02-20T08:10:42.809Z,5.15
2019-02-20T08:13:15.999Z,5.44
2019-02-20T08:15:47.828Z,5.11
2019-02-20T08:18:20.872Z,5.32
2019-02-20T08:20:52.759Z,5.59
2019-02-20T08:23:24.612Z,5.64
2019-02-20T08:25:56.430Z,6.13
2019-02-20T08:28:28.277Z,6.01
2019-02-20T08:31:00.119Z,6.62
2019-02-20T08:33:31.951Z,6.57
2019-02-20T08:36:03.788Z,6.94
2019-02-20T08:38:36.022Z,7.15
2019-02-20T08:41:07.867Z,7.10
2019-02-20T08:43:42.203Z,7.21
2019-02-20T08:46:14.080Z,7.29
2019-02-20T08:48:45.870Z,7.12
2019-02-20T08:51:17.693Z,7.04
2019-02-20T08:53:49.551Z,7.37
2019-02-20T08:56:22.901Z,7.41
2019-02-20T08:58:54.712Z,7.38
2019-02-20T09:01:27.080Z,7.01
2019-02-20T09:04:01.024Z,7.45
2019-02-20T09:06:32.877Z,7.89
2019-02-20T09:09:05.963Z,8.62
2019-02-20T09:11:39.394Z,8.68
2019-02-20T09:14:17.913Z,8.75
2019-02-20T09:16:53.013Z,9.11
2019-02-20T09:19:24.972Z,9.37
2019-02-20T09:21:56.841Z,9.41
2019-02-20T09:24:28.687Z,9.48
2019-02-20T09:27:00.519Z,9.29
2019-02-20T09:29:33.001Z,9.14
2019-02-20T09:32:04.943Z,9.50
2019-02-20T09:34:36.739Z,9.79
2019-02-20T09:37:08.626Z,9.73
2019-02-20T09:39:40.447Z,9.70
2019-02-20T09:42:18.782Z,9.97
2019-02-20T09:44:51.053Z,9.99
2019-02-20T09:47:22.910Z,10.68
2019-02-20T09:49:54.684Z,11.05
2019-02-20T09:52:26.948Z,10.90
2019-02-20T09:54:58.830Z,11.25
2019-02-20T09:57:30.713Z,11.36
2019-02-20T10:00:02.572Z,12.00
2019-02-20T10:02:36.394Z,11.70
2019-02-20T10:05:09.464Z,11.92
2019-02-20T10:07:41.273Z,13.25
2019-02-20T10:10:14.224Z,13.24
2019-02-20T10:12:48.372Z,14.13
2019-02-20T10:15:20.569Z,14.24
2019-02-20T10:17:52.451Z,13.61
2019-02-20T10:20:24.664Z,13.86
2019-02-20T10:22:56.554Z,14.15
2019-02-20T10:25:28.386Z,13.86
2019-02-20T10:28:00.268Z,13.78
2019-02-20T10:30:32.105Z,13.27
2019-02-20T10:33:03.962Z,13.82
2019-02-20T10:35:35.752Z,14.47
2019-02-20T10:38:07.584Z,13.57
2019-02-20T10:40:39.399Z,13.85
2019-02-20T10:43:11.242Z,13.55
2019-02-20T10:45:43.418Z,13.88
2019-02-20T10:48:15.704Z,13.76
2019-02-20T10:50:47.574Z,13.50
2019-02-20T10:53:21.966Z,13.84
2019-02-20T10:55:53.780Z,13.28
2019-02-20T10:58:25.623Z,13.08
2019-02-20T11:00:57.600Z,12.71
2019-02-20T11:03:29.496Z,13.13
2019-02-20T11:06:01.436Z,13.53
2019-02-20T11:08:33.236Z,13.81
2019-02-20T11:11:05.098Z,13.19
2019-02-20T11:13:37.506Z,12.66
2019-02-20T11:16:09.417Z,12.98
2019-02-20T11:18:41.294Z,13.03
2019-02-20T11:21:13.513Z,12.87
2019-02-20T11:23:45.411Z,13.06
2019-02-20T11:26:18.457Z,13.11
2019-02-20T11:28:51.605Z,12.97
2019-02-20T11:31:24.609Z,14.12
2019-02-20T11:33:56.434Z,14.09
2019-02-20T11:36:28.310Z,14.54
2019-02-20T11:39:00.097Z,14.11
2019-02-20T11:41:32.351Z,14.50
2019-02-20T11:44:04.197Z,14.48
2019-02-20T11:46:38.105Z,14.24
2019-02-20T11:49:09.974Z,15.41
2019-02-20T11:51:44.600Z,14.90
2019-02-20T11:54:16.415Z,15.19
2019-02-20T11:56:48.821Z,15.48
2019-02-20T11:59:21.769Z,16.59
2019-02-20T12:01:53.600Z,17.09
2019-02-20T12:04:25.425Z,17.01
2019-02-20T12:06:57.247Z,18.10
2019-02-20T12:09:29.105Z,18.38
2019-02-20T12:12:00.941Z,19.60
2019-02-20T12:14:33.746Z,19.97
2019-02-20T12:17:05.588Z,21.03
2019-02-20T12:19:39.290Z,21.01
2019-02-20T12:22:11.564Z,21.79
2019-02-20T12:24:43.419Z,20.80
2019-02-20T12:27:15.257Z,19.90
2019-02-20T12:29:47.273Z,19.78
2019-02-20T12:32:19.111Z,19.82
2019-02-20T12:34:52.061Z,19.82
2019-02-20T12:37:25.121Z,19.74
2019-02-20T12:39:57.074Z,20.38
2019-02-20T12:42:28.876Z,20.77
2019-02-20T12:45:00.697Z,21.89
2019-02-20T12:47:32.986Z,22.35
2019-02-20T12:50:06.854Z,22.14
2019-02-20T12:52:38.692Z,23.27
2019-02-20T12:55:12.435Z,24.60
2019-02-20T12:57:44.642Z,23.36
2019-02-20T13:00:18.738Z,22.78
2019-02-20T13:02:50.530Z,22.57
2019-02-20T13:05:23.314Z,22.40
2019-02-20T13:07:55.284Z,21.28
2019-02-20T13:10:27.114Z,19.88
2019-02-20T13:12:58.998Z,19.05
2019-02-20T13:15:30.854Z,18.72
2019-02-20T13:18:02.767Z,18.40
2019-02-20T13:20:37.576Z,18.35
2019-02-20T13:23:09.428Z,18.28
2019-02-20T13:25:43.816Z,17.81
2019-02-20T13:28:15.749Z,17.30
2019-02-20T13:30:47.600Z,17.02
2019-02-20T13:33:19.421Z,18.04
2019-02-20T13:35:52.251Z,17.72
2019-02-20T13:38:25.533Z,17.73
2019-02-20T13:40:57.371Z,17.91
2019-02-20T13:43:30.288Z,18.23
2019-02-20T13:46:02.189Z,18.45
2019-02-20T13:48:34.983Z,18.47
2019-02-20T13:51:07.074Z,18.51
2019-02-20T13:53:46.226Z,19.18
2019-02-20T13:56:15.115Z,19.22
2019-02-20T13:58:46.991Z,19.21
2019-02-20T14:01:18.879Z,19.31
2019-02-20T14:03:50.728Z,18.43
2019-02-20T14:06:22.980Z,18.83
2019-02-20T14:08:59.075Z,18.69
2019-02-20T14:11:31.002Z,18.86
2019-02-20T14:14:03.748Z,19.15
2019-02-20T14:16:35.560Z,19.19
2019-02-20T14:19:07.961Z,19.48
2019-02-20T14:21:39.801Z,19.18
2019-02-20T14:24:13.740Z,18.90
2019-02-20T14:26:45.927Z,18.59
2019-02-20T14:29:17.771Z,18.87
2019-02-20T14:31:49.767Z,18.52
2019-02-20T14:34:21.742Z,18.48
2019-02-20T14:36:53.562Z,18.56
2019-02-20T14:39:29.171Z,18.43
2019-02-20T14:42:02.319Z,18.58
2019-02-20T14:44:35.557Z,18.41
2019-02-20T14:47:07.547Z,18.51
2019-02-20T14:49:39.471Z,18.46
2019-02-20T14:52:11.648Z,18.77
2019-02-20T14:54:43.543Z,18.53
2019-02-20T14:57:19.676Z,18.58
2019-02-20T14:59:50.374Z,18.48
2019-02-20T15:02:22.333Z,18.81
2019-02-20T15:04:54.962Z,18.24
2019-02-20T15:07:28.425Z,17.74
2019-02-20T15:10:00.463Z,17.93
2019-02-20T15:12:32.399Z,18.40
2019-02-20T15:15:10.609Z,18.26
2019-02-20T15:17:39.879Z,18.07
2019-02-20T15:20:12.007Z,18.12
2019-02-20T15:22:43.883Z,17.90
2019-02-20T15:25:15.732Z,18.20
2019-02-20T15:27:47.700Z,18.43
2019-02-20T15:30:19.530Z,18.38
2019-02-20T15:32:51.354Z,18.33
2019-02-20T15:35:23.290Z,18.46
2019-02-20T15:37:55.092Z,18.64
2019-02-20T15:40:27.137Z,18.55
2019-02-20T15:42:58.962Z,18.61
2019-02-20T15:45:30.770Z,18.85
2019-02-20T15:48:03.221Z,18.51
2019-02-20T15:50:35.019Z,18.34
2019-02-20T15:53:07.065Z,18.45
2019-02-20T15:55:39.278Z,18.36
2019-02-20T15:58:11.447Z,18.43
2019-02-20T16:00:43.609Z,18.14
2019-02-20T16:03:15.468Z,17.84
2019-02-20T16:05:48.765Z,17.66
2019-02-20T16:08:21.551Z,17.73
2019-02-20T16:10:53.404Z,17.58
2019-02-20T16:13:26.639Z,17.74
2019-02-20T16:15:58.460Z,17.73
2019-02-20T16:18:30.960Z,17.69
2019-02-20T16:21:02.901Z,17.47
2019-02-20T16:23:35.704Z,17.38
2019-02-20T16:26:07.583Z,17.33
2019-02-20T16:28:39.464Z,17.42
2019-02-20T16:31:11.850Z,17.27
2019-02-20T16:33:43.726Z,17.06
2019-02-20T16:36:15.774Z,16.85
2019-02-20T16:38:48.998Z,16.70
2019-02-20T16:41:20.906Z,16.78
2019-02-20T16:43:52.749Z,16.78
2019-02-20T16:46:24.601Z,16.82
2019-02-20T16:48:56.430Z,16.82
2019-02-20T16:51:31.452Z,16.69
2019-02-20T16:54:04.932Z,16.57
2019-02-20T16:56:38.945Z,16.57
2019-02-20T16:59:10.776Z,16.56
2019-02-20T17:01:42.712Z,16.65
2019-02-20T17:04:16.329Z,16.57
2019-02-20T17:06:48.278Z,16.63
2019-02-20T17:09:20.079Z,16.45
2019-02-20T17:11:51.899Z,16.42
2019-02-20T17:14:25.440Z,16.23
2019-02-20T17:16:57.760Z,16.27
2019-02-20T17:19:32.365Z,16.23
2019-02-20T17:22:04.260Z,16.10
2019-02-20T17:24:36.280Z,16.08
2019-02-20T17:27:08.348Z,15.97
2019-02-20T17:29:40.234Z,15.90
2019-02-20T17:32:12.145Z,15.82
2019-02-20T17:34:45.230Z,15.73
2019-02-20T17:37:17.504Z,15.70
2019-02-20T17:39:49.327Z,15.66
2019-02-20T17:42:21.296Z,15.42
2019-02-20T17:44:53.165Z,15.17
2019-02-20T17:47:26.672Z,14.97
2019-02-20T17:49:58.528Z,14.76
2019-02-20T17:52:30.424Z,14.59
2019-02-20T17:55:04.077Z,14.45
2019-02-20T17:57:36.963Z,14.31
2019-02-20T18:00:11.193Z,14.17
2019-02-20T18:02:43.635Z,14.04
2019-02-20T18:05:15.555Z,13.95
2019-02-20T18:07:51.502Z,13.86
2019-02-20T18:10:21.012Z,13.79
2019-02-20T18:12:52.885Z,13.70
2019-02-20T18:15:26.361Z,13.60
2019-02-20T18:17:58.195Z,13.61
2019-02-20T18:20:30.767Z,13.48
2019-02-20T18:23:02.627Z,13.37
2019-02-20T18:25:34.706Z,13.15
2019-02-20T18:28:06.659Z,13.00
2019-02-20T18:30:38.579Z,12.82
2019-02-20T18:33:10.574Z,12.74
2019-02-20T18:35:42.469Z,12.63
2019-02-20T18:38:14.410Z,12.57
2019-02-20T18:40:46.248Z,12.50
2019-02-20T18:43:18.443Z,12.40
2019-02-20T18:45:50.305Z,12.33
2019-02-20T18:48:22.237Z,12.17
2019-02-20T18:50:54.161Z,12.08
2019-02-20T18:53:26.030Z,12.04
2019-02-20T18:55:57.942Z,12.01
2019-02-20T18:58:33.932Z,11.86
2019-02-20T19:01:03.594Z,11.76
2019-02-20T19:03:35.464Z,11.45
2019-02-20T19:06:07.683Z,11.63
2019-02-20T19:08:45.092Z,11.60
2019-02-20T19:11:58.131Z,11.57
2019-02-20T19:14:52.155Z,11.51
2019-02-20T19:17:48.275Z,11.34
2019-02-20T19:20:52.102Z,11.25
2019-02-20T19:24:00.135Z,11.24
2019-02-20T19:26:59.990Z,11.10
2019-02-20T19:29:54.672Z,11.03
2019-02-20T19:32:41.347Z,11.02
2019-02-20T19:35:58.540Z,10.89
2019-02-20T19:38:50.213Z,10.79
2019-02-20T19:41:33.369Z,10.76
2019-02-20T19:44:27.871Z,10.73
2019-02-20T19:47:33.457Z,10.59
2019-02-20T19:51:03.515Z,10.48
2019-02-20T19:53:58.004Z,10.44
2019-02-20T19:57:15.289Z,10.60
2019-02-20T20:00:17.739Z,10.35
2019-02-20T20:03:37.139Z,10.20
2019-02-20T20:06:18.830Z,10.14
2019-02-20T20:09:13.041Z,10.15
2019-02-20T20:12:41.021Z,10.16
2019-02-20T20:16:04.535Z,10.03
2019-02-20T20:19:17.486Z,10.02
2019-02-20T20:22:21.563Z,9.95
2019-02-20T20:25:55.266Z,9.81
2019-02-20T20:29:07.247Z,9.75
2019-02-20T20:32:20.675Z,9.70
2019-02-20T20:35:51.499Z,9.66
2019-02-20T20:39:05.866Z,9.65
2019-02-20T20:42:54.476Z,9.52
2019-02-20T20:46:06.225Z,9.44
2019-02-20T20:49:12.508Z,9.50
2019-02-20T20:52:20.858Z,9.54
2019-02-20T20:55:38.781Z,9.59
2019-02-20T20:58:40.417Z,9.58
2019-02-20T21:01:45.259Z,9.53
2019-02-20T21:05:09.165Z,9.49
2019-02-20T21:08:31.185Z,9.29
2019-02-20T21:11:46.476Z,9.27
2019-02-20T21:15:03.428Z,9.40
2019-02-20T21:18:07.140Z,9.38
2019-02-20T21:21:14.853Z,9.38
2019-02-20T21:24:31.570Z,9.25
2019-02-20T21:27:41.046Z,9.24
2019-02-20T21:30:45.226Z,9.17
2019-02-20T21:33:53.797Z,9.11
2019-02-20T21:37:00.613Z,8.95
2019-02-20T21:39:47.477Z,8.84
2019-02-20T21:42:50.545Z,8.79
2019-02-20T21:46:02.754Z,8.71
2019-02-20T21:49:13.784Z,8.59
2019-02-20T21:52:19.799Z,8.50
2019-02-20T21:55:21.276Z,8.48
2019-02-20T21:58:50.547Z,8.53
2019-02-20T22:01:49.822Z,8.43
2019-02-20T22:05:04.713Z,8.33
2019-02-20T22:08:22.207Z,8.24
2019-02-20T22:11:24.309Z,8.19
2019-02-20T22:14:12.783Z,8.10
2019-02-20T22:17:14.926Z,8.01
2019-02-20T22:20:47.526Z,7.88
2019-02-20T22:23:41.667Z,7.81
2019-02-20T22:26:54.743Z,7.88
2019-02-20T22:30:13.908Z,7.97
2019-02-20T22:33:33.761Z,7.98
2019-02-20T22:36:43.509Z,8.06
2019-02-20T22:39:44.467Z,8.00
2019-02-20T22:43:02.408Z,7.98
2019-02-20T22:46:09.176Z,8.02
2019-02-20T22:49:04.583Z,7.92
2019-02-20T22:52:25.238Z,7.86
2019-02-20T22:55:48.724Z,7.91
2019-02-20T22:58:54.074Z,7.88
2019-02-20T23:02:03.581Z,7.74
2019-02-20T23:05:12.411Z,7.68
2019-02-20T23:08:14.381Z,7.65
2019-02-20T23:11:24.316Z,7.56
2019-02-20T23:14:30.921Z,7.45
2019-02-20T23:17:04.707Z,7.38
2019-02-20T23:19:37.008Z,7.34
2019-02-20T23:22:09.102Z,7.26
2019-02-20T23:24:42.120Z,7.17
2019-02-20T23:27:14.571Z,7.21
2019-02-20T23:29:46.570Z,7.34
2019-02-20T23:32:18.442Z,7.34
2019-02-20T23:34:50.569Z,7.36
2019-02-20T23:37:22.374Z,7.32
2019-02-20T23:39:54.670Z,7.20
2019-02-20T23:42:26.702Z,7.15
2019-02-20T23:44:58.811Z,7.11
2019-02-20T23:47:30.717Z,7.05
2019-02-20T23:50:02.554Z,7.05
2019-02-20T23:52:34.420Z,7.05
2019-02-20T23:55:09.691Z,7.02
2019-02-20T23:57:41.500Z,6.97
